Time;durP1;ratioP1;P1;durP2;ratioP2;P2;SDS_P1;SDS_P2;PMS_P1;PMS_P2;Temp;Humidity;BMP_temperature;BMP_pressure;BME280_temperature;BME280_humidity;BME280_pressure;Samples;Min_cycle;Max_cycle;Signal;HPM_P1;HPM_P2
2022/11/24 00:02:10;;;;;;;39.92;23.88;;;;;;;;;;4994562;28;20034;-71
2022/11/24 00:04:36;;;;;;;55.22;30.15;;;;;;;;;;4994644;28;20018;-72
2022/11/24 00:07:03;;;;;;;31.75;21.30;;;;;;;;;;4994497;28;20031;-71
2022/11/24 00:09:29;;;;;;;35.42;26.05;;;;;;;;;;4994616;28;20105;-71
2022/11/24 00:11:55;;;;;;;46.55;32.58;;;;;;;;;;4994253;28;20050;-72
2022/11/24 00:14:21;;;;;;;53.75;36.90;;;;;;;;;;4994380;28;20072;-73
2022/11/24 00:16:47;;;;;;;57.42;39.10;;;;;;;;;;4985151;28;20101;-72
2022/11/24 00:19:13;;;;;;;58.33;37.75;;;;;;;;;;4991057;28;20026;-72
2022/11/24 00:21:39;;;;;;;67.40;44.97;;;;;;;;;;4994342;28;20030;-71
2022/11/24 00:24:05;;;;;;;64.80;44.05;;;;;;;;;;4994105;28;20030;-72
2022/11/24 00:26:33;;;;;;;51.42;36.78;;;;;;;;;;4994100;28;20085;-71
2022/11/24 00:29:00;;;;;;;58.92;40.88;;;;;;;;;;4982135;28;20105;-71
2022/11/24 00:31:31;;;;;;;54.47;36.90;;;;;;;;;;4993929;28;20480;-74
2022/11/24 00:33:58;;;;;;;61.70;42.58;;;;;;;;;;4994269;28;20026;-75
2022/11/24 00:36:26;;;;;;;66.82;47.75;;;;;;;;;;4994222;28;20019;-70
2022/11/24 00:38:55;;;;;;;71.88;50.42;;;;;;;;;;4993829;28;20021;-74
2022/11/24 00:41:22;;;;;;;71.53;49.15;;;;;;;;;;4993035;28;20054;-70
2022/11/24 00:43:48;;;;;;;70.93;48.90;;;;;;;;;;4993549;28;20141;-71
2022/11/24 00:46:14;;;;;;;69.43;46.45;;;;;;;;;;4989877;28;20092;-76
2022/11/24 00:48:40;;;;;;;82.32;52.30;;;;;;;;;;4976589;28;20091;-71
2022/11/24 00:51:08;;;;;;;73.63;49.10;;;;;;;;;;4993564;28;20485;-74
2022/11/24 00:53:34;;;;;;;59.92;40.42;;;;;;;;;;4993487;28;20052;-73
2022/11/24 00:56:02;;;;;;;56.65;37.75;;;;;;;;;;4995231;28;20173;-72
2022/11/24 00:58:29;;;;;;;68.45;41.42;;;;;;;;;;4993794;28;20019;-71
2022/11/24 01:00:55;;;;;;;45.63;32.95;;;;;;;;;;4993397;28;20543;-75
2022/11/24 01:03:21;;;;;;;48.45;32.50;;;;;;;;;;4993749;28;20019;-73
2022/11/24 01:05:48;;;;;;;82.78;45.47;;;;;;;;;;4993394;28;20496;-71
2022/11/24 01:08:14;;;;;;;69.55;40.67;;;;;;;;;;4993595;28;20548;-77
2022/11/24 01:10:40;;;;;;;44.40;30.35;;;;;;;;;;4993342;28;20057;-75
2022/11/24 01:13:06;;;;;;;45.15;30.67;;;;;;;;;;4993118;28;20018;-71
2022/11/24 01:15:34;;;;;;;46.47;30.75;;;;;;;;;;4993637;28;20507;-72
2022/11/24 01:18:00;;;;;;;50.00;33.97;;;;;;;;;;4990343;28;20034;-75
2022/11/24 01:20:26;;;;;;;42.10;29.27;;;;;;;;;;4992443;28;20101;-73
2022/11/24 01:22:52;;;;;;;39.90;27.00;;;;;;;;;;4992462;28;20500;-71
2022/11/24 01:25:18;;;;;;;46.50;29.35;;;;;;;;;;4992798;28;20420;-75
2022/11/24 01:27:44;;;;;;;44.17;28.50;;;;;;;;;;4974840;28;20480;-76
2022/11/24 01:30:10;;;;;;;36.17;25.10;;;;;;;;;;4974738;28;20648;-72
2022/11/24 01:32:36;;;;;;;35.92;22.38;;;;;;;;;;4992433;28;20036;-70
2022/11/24 01:35:03;;;;;;;29.80;21.85;;;;;;;;;;4992393;28;20161;-70
2022/11/24 01:37:29;;;;;;;39.42;25.50;;;;;;;;;;4992275;28;20089;-72
2022/11/24 01:39:55;;;;;;;38.40;26.30;;;;;;;;;;4992140;28;20085;-71
2022/11/24 01:42:21;;;;;;;34.72;24.35;;;;;;;;;;4992109;28;20034;-72
2022/11/24 01:44:48;;;;;;;37.28;25.15;;;;;;;;;;4992342;28;20033;-74
2022/11/24 01:47:30;;;;;;;39.72;26.45;;;;;;;;;;4984979;28;20018;-71
2022/11/24 01:49:57;;;;;;;40.17;26.92;;;;;;;;;;4992156;28;20053;-72
2022/11/24 01:52:27;;;;;;;52.63;33.60;;;;;;;;;;4992379;28;20041;-71
2022/11/24 01:54:59;;;;;;;65.57;43.38;;;;;;;;;;4992394;28;20388;-75
2022/11/24 01:57:27;;;;;;;66.00;42.88;;;;;;;;;;4992120;28;20046;-78
2022/11/24 01:59:57;;;;;;;62.25;41.17;;;;;;;;;;4992012;28;20026;-73
2022/11/24 02:02:23;;;;;;;58.80;39.28;;;;;;;;;;4991772;28;20041;-71
2022/11/24 02:04:50;;;;;;;56.25;38.13;;;;;;;;;;4992003;28;20023;-72
2022/11/24 02:07:17;;;;;;;56.80;37.28;;;;;;;;;;4991895;28;20062;-71
2022/11/24 02:09:51;;;;;;;53.90;35.88;;;;;;;;;;4994577;28;20034;-71
2022/11/24 02:12:17;;;;;;;53.33;36.05;;;;;;;;;;4995148;28;20038;-72
2022/11/24 02:14:44;;;;;;;49.20;34.40;;;;;;;;;;4995586;28;20105;-72
2022/11/24 02:17:10;;;;;;;51.90;34.25;;;;;;;;;;4942757;28;1202314;-72
2022/11/24 02:19:39;;;;;;;44.33;28.88;;;;;;;;;;4995666;28;20045;-72
2022/11/24 02:22:07;;;;;;;42.65;29.33;;;;;;;;;;4996508;28;20030;-71
2022/11/24 02:24:40;;;;;;;40.50;27.73;;;;;;;;;;4996337;28;20034;-72
2022/11/24 02:27:07;;;;;;;40.50;26.48;;;;;;;;;;4996226;28;20030;-71
2022/11/24 02:29:33;;;;;;;43.70;28.23;;;;;;;;;;4996316;28;20029;-71
2022/11/24 02:32:01;;;;;;;112.97;61.42;;;;;;;;;;4995970;28;20030;-71
2022/11/24 02:34:27;;;;;;;82.10;47.03;;;;;;;;;;4996465;28;20565;-70
2022/11/24 02:36:53;;;;;;;44.28;29.65;;;;;;;;;;4996509;28;20037;-73
2022/11/24 02:39:20;;;;;;;53.05;31.33;;;;;;;;;;4996585;28;20473;-73
2022/11/24 02:41:49;;;;;;;64.53;37.63;;;;;;;;;;4996143;28;20035;-72
2022/11/24 02:44:17;;;;;;;38.80;24.10;;;;;;;;;;4996421;28;20031;-72
2022/11/24 02:46:43;;;;;;;67.50;38.00;;;;;;;;;;4988730;28;20124;-72
2022/11/24 02:49:09;;;;;;;51.10;31.83;;;;;;;;;;4996325;28;20109;-72
2022/11/24 02:51:35;;;;;;;28.70;18.80;;;;;;;;;;4996308;28;20103;-71
2022/11/24 02:54:01;;;;;;;32.40;19.08;;;;;;;;;;4996265;28;20142;-72
2022/11/24 02:56:27;;;;;;;33.30;21.92;;;;;;;;;;4996315;28;20073;-75
2022/11/24 02:58:53;;;;;;;29.23;19.55;;;;;;;;;;4996025;28;20014;-71
2022/11/24 03:01:19;;;;;;;28.23;21.42;;;;;;;;;;4996153;28;20034;-73
2022/11/24 03:03:46;;;;;;;31.75;21.05;;;;;;;;;;4995973;28;20476;-71
2022/11/24 03:06:12;;;;;;;31.42;22.42;;;;;;;;;;4996278;28;20023;-74
2022/11/24 03:08:38;;;;;;;41.88;26.95;;;;;;;;;;4996121;28;20022;-71
2022/11/24 03:11:04;;;;;;;50.88;33.30;;;;;;;;;;4995833;28;20042;-73
2022/11/24 03:13:30;;;;;;;51.55;31.40;;;;;;;;;;4995862;28;20022;-71
2022/11/24 03:15:56;;;;;;;30.88;19.98;;;;;;;;;;4994068;28;20026;-73
2022/11/24 03:18:22;;;;;;;27.42;18.20;;;;;;;;;;4985630;28;20058;-71
2022/11/24 03:20:48;;;;;;;39.50;24.40;;;;;;;;;;4995406;28;20026;-72
2022/11/24 03:23:14;;;;;;;48.15;30.10;;;;;;;;;;4995799;28;20479;-72
2022/11/24 03:25:40;;;;;;;28.50;19.85;;;;;;;;;;4995652;28;20477;-70
2022/11/24 03:28:06;;;;;;;65.97;37.40;;;;;;;;;;4995600;28;20041;-73
2022/11/24 03:30:32;;;;;;;33.42;21.17;;;;;;;;;;4995896;28;20038;-76
2022/11/24 03:32:59;;;;;;;30.27;19.15;;;;;;;;;;4995156;28;20018;-71
2022/11/24 03:35:25;;;;;;;23.75;16.40;;;;;;;;;;4977660;28;20472;-77
2022/11/24 03:37:51;;;;;;;26.95;18.90;;;;;;;;;;4995224;28;20448;-76
2022/11/24 03:40:17;;;;;;;49.63;26.40;;;;;;;;;;4995057;28;20023;-77
2022/11/24 03:42:43;;;;;;;44.05;25.58;;;;;;;;;;4995042;28;20026;-77
2022/11/24 03:45:09;;;;;;;21.73;14.68;;;;;;;;;;4995533;28;20023;-77
2022/11/24 03:47:35;;;;;;;25.33;16.60;;;;;;;;;;4987848;28;20041;-72
2022/11/24 03:50:01;;;;;;;44.72;27.75;;;;;;;;;;4994886;28;20031;-72
2022/11/24 03:52:27;;;;;;;123.97;65.10;;;;;;;;;;4977536;28;20034;-74
2022/11/24 03:54:53;;;;;;;487.45;307.17;;;;;;;;;;4995023;28;20034;-70
2022/11/24 03:57:20;;;;;;;396.45;236.20;;;;;;;;;;4994973;28;20018;-72
2022/11/24 03:59:46;;;;;;;456.15;319.77;;;;;;;;;;4994743;28;20106;-69
2022/11/24 04:02:12;;;;;;;67.03;54.75;;;;;;;;;;4994900;28;20397;-71
2022/11/24 04:04:38;;;;;;;30.20;24.00;;;;;;;;;;4995031;28;20031;-72
2022/11/24 04:07:04;;;;;;;46.55;42.38;;;;;;;;;;4994492;28;20033;-72
2022/11/24 04:09:30;;;;;;;21.73;16.45;;;;;;;;;;4994666;28;20395;-77
2022/11/24 04:14:41;;;;;;;24.23;16.15;;;;;;;;;;4994319;28;20034;-72
2022/11/24 04:17:08;;;;;;;20.15;16.45;;;;;;;;;;4983554;28;20485;-76
2022/11/24 04:19:34;;;;;;;21.23;16.95;;;;;;;;;;4990729;28;20503;-75
2022/11/24 04:22:00;;;;;;;20.83;13.95;;;;;;;;;;4994161;28;20098;-72
2022/11/24 04:24:26;;;;;;;23.60;15.45;;;;;;;;;;4994610;28;20389;-75
2022/11/24 04:26:52;;;;;;;24.27;21.67;;;;;;;;;;4993957;28;20163;-72
2022/11/24 04:29:18;;;;;;;21.80;17.55;;;;;;;;;;4994439;28;20037;-70
2022/11/24 04:31:44;;;;;;;21.75;17.67;;;;;;;;;;4993440;28;20130;-73
2022/11/24 04:34:10;;;;;;;20.25;16.08;;;;;;;;;;4994318;28;20105;-75
2022/11/24 04:36:36;;;;;;;32.50;23.30;;;;;;;;;;4994389;28;20073;-77
2022/11/24 04:39:02;;;;;;;35.60;27.65;;;;;;;;;;4976520;28;20052;-74
2022/11/24 04:41:29;;;;;;;41.00;31.23;;;;;;;;;;4993833;28;20030;-74
2022/11/24 04:43:55;;;;;;;46.83;32.85;;;;;;;;;;4993469;28;20042;-71
2022/11/24 04:46:24;;;;;;;46.15;32.92;;;;;;;;;;4989418;28;20035;-76
2022/11/24 04:48:50;;;;;;;53.45;36.47;;;;;;;;;;4988016;28;20023;-71
2022/11/24 04:51:16;;;;;;;42.60;29.05;;;;;;;;;;4993880;28;20041;-71
2022/11/24 04:53:42;;;;;;;39.20;28.88;;;;;;;;;;4993925;28;20117;-71
2022/11/24 04:56:09;;;;;;;38.67;26.88;;;;;;;;;;4993876;28;20520;-76
2022/11/24 04:58:38;;;;;;;42.85;28.65;;;;;;;;;;4994105;28;20031;-71
2022/11/24 05:01:07;;;;;;;39.83;26.58;;;;;;;;;;4992523;28;20022;-76
2022/11/24 05:03:34;;;;;;;42.45;27.23;;;;;;;;;;4993210;28;20049;-72
2022/11/24 05:06:00;;;;;;;40.28;29.67;;;;;;;;;;4992785;28;20053;-76
2022/11/24 05:08:26;;;;;;;48.55;32.53;;;;;;;;;;4993236;28;20030;-73
2022/11/24 05:10:52;;;;;;;54.92;35.72;;;;;;;;;;4993391;28;20025;-77
2022/11/24 05:13:18;;;;;;;91.28;54.47;;;;;;;;;;4993225;28;20030;-70
2022/11/24 05:15:44;;;;;;;123.82;77.82;;;;;;;;;;4993400;28;20023;-73
2022/11/24 05:18:11;;;;;;;145.45;92.70;;;;;;;;;;4986437;28;20054;-70
2022/11/24 05:20:38;;;;;;;99.90;65.28;;;;;;;;;;4993211;28;20552;-73
2022/11/24 05:23:05;;;;;;;76.85;51.15;;;;;;;;;;4993144;28;20050;-72
2022/11/24 05:25:31;;;;;;;61.95;40.25;;;;;;;;;;4993254;28;20443;-72
2022/11/24 05:28:01;;;;;;;44.55;29.75;;;;;;;;;;4993053;28;20032;-72
2022/11/24 05:30:27;;;;;;;43.22;30.83;;;;;;;;;;4992028;28;20129;-71
2022/11/24 05:32:53;;;;;;;42.13;31.10;;;;;;;;;;4974995;28;20038;-77
2022/11/24 05:35:20;;;;;;;49.00;32.53;;;;;;;;;;4992556;28;20456;-77
2022/11/24 05:37:46;;;;;;;42.95;31.25;;;;;;;;;;4992340;28;20165;-73
2022/11/24 05:40:13;;;;;;;39.30;29.98;;;;;;;;;;4992507;28;20019;-71
2022/11/24 05:42:39;;;;;;;40.75;29.33;;;;;;;;;;4992843;28;20015;-75
2022/11/24 05:45:05;;;;;;;51.45;33.58;;;;;;;;;;4992726;28;20070;-73
2022/11/24 05:47:31;;;;;;;51.13;35.83;;;;;;;;;;4984428;28;20029;-76
2022/11/24 05:49:57;;;;;;;55.67;39.65;;;;;;;;;;4993067;28;20072;-72
2022/11/24 05:52:23;;;;;;;62.13;39.95;;;;;;;;;;4992802;28;20516;-75
2022/11/24 05:54:49;;;;;;;54.70;37.85;;;;;;;;;;4992857;28;20033;-71
2022/11/24 05:57:16;;;;;;;54.65;36.70;;;;;;;;;;4992572;28;20038;-74
2022/11/24 05:59:42;;;;;;;51.15;36.88;;;;;;;;;;4992839;28;20025;-72
2022/11/24 06:02:08;;;;;;;57.30;40.08;;;;;;;;;;4992575;28;20104;-74
2022/11/24 06:04:35;;;;;;;59.53;38.63;;;;;;;;;;4992960;28;20457;-72
2022/11/24 06:07:02;;;;;;;63.58;38.67;;;;;;;;;;4992849;28;20113;-71
2022/11/24 06:09:28;;;;;;;62.65;43.40;;;;;;;;;;4989424;28;20096;-78
2022/11/24 06:11:54;;;;;;;64.88;43.45;;;;;;;;;;4973973;28;20432;-74
2022/11/24 06:14:20;;;;;;;66.57;44.85;;;;;;;;;;4993051;28;20022;-76
2022/11/24 06:16:47;;;;;;;65.95;45.58;;;;;;;;;;4992753;28;20077;-72
2022/11/24 06:19:13;;;;;;;66.00;46.50;;;;;;;;;;4985202;28;20030;-75
2022/11/24 06:21:39;;;;;;;77.68;51.10;;;;;;;;;;4992478;28;20552;-73
2022/11/24 06:24:05;;;;;;;70.50;51.47;;;;;;;;;;4993057;28;20535;-73
2022/11/24 06:26:31;;;;;;;74.10;50.92;;;;;;;;;;4992836;28;20122;-72
2022/11/24 06:28:57;;;;;;;68.28;46.72;;;;;;;;;;4992450;28;20089;-76
2022/11/24 06:31:23;;;;;;;69.13;48.35;;;;;;;;;;4991063;28;20038;-75
2022/11/24 06:33:49;;;;;;;61.92;43.47;;;;;;;;;;4991345;28;20022;-79
2022/11/24 06:36:16;;;;;;;61.42;44.55;;;;;;;;;;4992507;28;20366;-75
2022/11/24 06:38:42;;;;;;;61.58;45.22;;;;;;;;;;4993066;28;20068;-76
2022/11/24 06:41:11;;;;;;;63.78;44.47;;;;;;;;;;4992519;28;20081;-75
2022/11/24 06:43:38;;;;;;;68.10;46.03;;;;;;;;;;4992472;28;20509;-77
2022/11/24 06:46:04;;;;;;;64.40;48.88;;;;;;;;;;4992292;28;20393;-75
2022/11/24 06:48:30;;;;;;;70.18;48.65;;;;;;;;;;4992480;28;20027;-75
2022/11/24 06:50:59;;;;;;;66.07;48.78;;;;;;;;;;4992079;28;20045;-77
2022/11/24 06:53:26;;;;;;;59.72;42.70;;;;;;;;;;4992503;28;20018;-75
2022/11/24 06:55:52;;;;;;;58.47;41.38;;;;;;;;;;4995668;28;20027;-73
2022/11/24 06:58:18;;;;;;;61.45;45.88;;;;;;;;;;4996492;28;20495;-73
2022/11/24 07:00:44;;;;;;;68.05;47.72;;;;;;;;;;4996170;28;20037;-75
2022/11/24 07:03:18;;;;;;;77.20;53.08;;;;;;;;;;4996384;28;20033;-78
2022/11/24 07:05:44;;;;;;;92.68;65.25;;;;;;;;;;4996455;28;20447;-77
2022/11/24 07:08:10;;;;;;;97.15;68.78;;;;;;;;;;4994965;28;20030;-75
2022/11/24 07:10:37;;;;;;;100.60;72.50;;;;;;;;;;4996082;28;20081;-75
2022/11/24 07:13:03;;;;;;;118.80;84.68;;;;;;;;;;4996298;28;20053;-75
2022/11/24 07:15:30;;;;;;;117.80;84.38;;;;;;;;;;4995653;28;20026;-76
2022/11/24 07:17:56;;;;;;;105.75;74.80;;;;;;;;;;4994136;28;20054;-78
2022/11/24 07:20:22;;;;;;;111.95;78.07;;;;;;;;;;4995327;28;20097;-74
2022/11/24 07:22:48;;;;;;;105.10;76.50;;;;;;;;;;4995538;28;20018;-75
2022/11/24 07:25:16;;;;;;;113.68;72.63;;;;;;;;;;4995488;28;20018;-74
2022/11/24 07:27:42;;;;;;;114.00;80.00;;;;;;;;;;4995514;28;20019;-75
2022/11/24 07:30:08;;;;;;;120.38;85.47;;;;;;;;;;4995517;28;20032;-77
2022/11/24 07:32:34;;;;;;;123.40;88.53;;;;;;;;;;4996145;28;20033;-77
2022/11/24 07:35:00;;;;;;;133.35;92.35;;;;;;;;;;4995881;28;20105;-77
2022/11/24 07:37:26;;;;;;;139.13;97.53;;;;;;;;;;4995748;28;20022;-77
2022/11/24 07:39:52;;;;;;;136.98;98.88;;;;;;;;;;4995675;28;20030;-79
2022/11/24 07:42:18;;;;;;;142.45;99.30;;;;;;;;;;4996203;28;20461;-80
2022/11/24 07:44:44;;;;;;;132.05;93.97;;;;;;;;;;4995029;28;20100;-79
2022/11/24 07:47:10;;;;;;;150.65;103.25;;;;;;;;;;4995517;28;20046;-79
2022/11/24 07:49:36;;;;;;;148.82;103.65;;;;;;;;;;4995377;28;20046;-77
2022/11/24 07:52:03;;;;;;;148.27;104.20;;;;;;;;;;4995603;28;20041;-79
2022/11/24 07:54:30;;;;;;;155.90;110.53;;;;;;;;;;4995595;28;20480;-79
2022/11/24 07:56:56;;;;;;;169.48;121.60;;;;;;;;;;4995460;28;20018;-79
2022/11/24 07:59:22;;;;;;;161.70;116.60;;;;;;;;;;4995447;28;20384;-80
2022/11/24 08:01:48;;;;;;;158.07;110.20;;;;;;;;;;4995315;28;20018;-79
2022/11/24 08:04:15;;;;;;;150.45;108.95;;;;;;;;;;4995350;28;20023;-77
2022/11/24 08:06:41;;;;;;;144.40;103.63;;;;;;;;;;4994169;28;20030;-73
2022/11/24 08:09:07;;;;;;;160.98;116.40;;;;;;;;;;4995294;28;20033;-79
2022/11/24 08:11:33;;;;;;;142.45;100.40;;;;;;;;;;4995032;28;20034;-73
2022/11/24 08:13:59;;;;;;;130.80;96.38;;;;;;;;;;4994996;28;20030;-77
2022/11/24 08:16:25;;;;;;;145.15;107.30;;;;;;;;;;4994659;28;20043;-79
2022/11/24 08:18:55;;;;;;;162.63;115.28;;;;;;;;;;4994989;28;20098;-76
2022/11/24 08:21:22;;;;;;;162.25;115.25;;;;;;;;;;4995379;28;20031;-79
2022/11/24 08:23:48;;;;;;;203.50;143.57;;;;;;;;;;4995126;28;20022;-81
2022/11/24 08:26:16;;;;;;;158.05;119.50;;;;;;;;;;4994640;28;20034;-78
2022/11/24 08:28:43;;;;;;;143.52;105.72;;;;;;;;;;4994862;28;20023;-78
2022/11/24 08:31:17;;;;;;;131.10;98.63;;;;;;;;;;4994423;28;20400;-73
2022/11/24 08:33:43;;;;;;;115.70;87.28;;;;;;;;;;4994692;28;20031;-79
2022/11/24 08:36:11;;;;;;;120.80;86.50;;;;;;;;;;4994663;28;20030;-71
2022/11/24 08:38:37;;;;;;;98.30;72.20;;;;;;;;;;4994356;28;20018;-78
2022/11/24 08:41:04;;;;;;;91.65;65.40;;;;;;;;;;4994539;28;20489;-76
2022/11/24 08:43:31;;;;;;;94.30;64.68;;;;;;;;;;4994324;28;20543;-78
2022/11/24 08:46:00;;;;;;;86.45;64.25;;;;;;;;;;4994645;28;20058;-80
2022/11/24 08:48:27;;;;;;;114.40;83.30;;;;;;;;;;4994575;28;20023;-78
2022/11/24 08:50:53;;;;;;;108.20;75.95;;;;;;;;;;4994311;28;20069;-78
2022/11/24 08:53:19;;;;;;;106.95;78.45;;;;;;;;;;4994365;28;20022;-79
2022/11/24 08:55:45;;;;;;;85.57;60.03;;;;;;;;;;4994150;28;20077;-78
2022/11/24 08:58:11;;;;;;;79.03;59.30;;;;;;;;;;4994347;28;20019;-78
2022/11/24 09:00:37;;;;;;;75.55;54.33;;;;;;;;;;4993964;28;20092;-73
2022/11/24 09:03:03;;;;;;;82.28;62.00;;;;;;;;;;4994204;28;20073;-80
2022/11/24 09:05:29;;;;;;;94.80;70.25;;;;;;;;;;4994051;28;20376;-79
2022/11/24 09:07:55;;;;;;;103.55;73.82;;;;;;;;;;4994182;28;20354;-77
2022/11/24 09:10:21;;;;;;;108.40;80.55;;;;;;;;;;4993968;28;20388;-78
2022/11/24 09:12:47;;;;;;;122.97;93.70;;;;;;;;;;4993867;28;20022;-73
2022/11/24 09:15:15;;;;;;;146.43;112.97;;;;;;;;;;4993937;28;20556;-77
2022/11/24 09:17:41;;;;;;;229.00;181.15;;;;;;;;;;4993347;28;20046;-75
2022/11/24 09:20:07;;;;;;;237.82;173.55;;;;;;;;;;4993820;28;20026;-78
2022/11/24 09:22:33;;;;;;;305.20;211.40;;;;;;;;;;4993807;28;20034;-76
2022/11/24 09:24:59;;;;;;;160.38;117.85;;;;;;;;;;4993969;28;20018;-78
2022/11/24 09:27:26;;;;;;;123.15;92.63;;;;;;;;;;4994017;28;20053;-78
2022/11/24 09:29:52;;;;;;;118.88;86.70;;;;;;;;;;4993562;28;20026;-78
2022/11/24 09:32:19;;;;;;;104.70;75.70;;;;;;;;;;4993622;28;20046;-78
2022/11/24 09:34:45;;;;;;;90.78;63.63;;;;;;;;;;4993647;28;20018;-78
2022/11/24 09:37:11;;;;;;;94.07;65.80;;;;;;;;;;4993581;28;20030;-79
2022/11/24 09:39:37;;;;;;;106.72;76.55;;;;;;;;;;4993692;28;20033;-78
2022/11/24 09:42:16;;;;;;;69.38;47.78;;;;;;;;;;4993668;28;20029;-74
2022/11/24 09:44:44;;;;;;;83.03;54.35;;;;;;;;;;4993569;28;20034;-74
2022/11/24 09:47:31;;;;;;;50.72;36.40;;;;;;;;;;4993494;28;20166;-78
2022/11/24 09:50:00;;;;;;;45.45;30.90;;;;;;;;;;4993300;28;20033;-80
2022/11/24 09:52:38;;;;;;;41.60;28.35;;;;;;;;;;4993478;28;20038;-80
2022/11/24 09:55:05;;;;;;;94.78;54.45;;;;;;;;;;4993785;28;20113;-80
2022/11/24 09:57:34;;;;;;;125.32;70.75;;;;;;;;;;4993484;28;20022;-79
2022/11/24 10:00:03;;;;;;;65.90;37.63;;;;;;;;;;4993315;28;20027;-79
2022/11/24 10:02:29;;;;;;;57.38;33.40;;;;;;;;;;4993422;28;20010;-78
2022/11/24 10:04:55;;;;;;;65.55;33.65;;;;;;;;;;4993337;28;20538;-77
2022/11/24 10:07:28;;;;;;;90.57;42.15;;;;;;;;;;4993479;28;21165;-79
2022/11/24 10:09:54;;;;;;;39.80;24.90;;;;;;;;;;4993217;28;20030;-77
2022/11/24 10:12:20;;;;;;;261.40;141.48;;;;;;;;;;4975605;28;20089;-79
2022/11/24 10:15:03;;;;;;;192.68;104.05;;;;;;;;;;4993497;28;20488;-81
2022/11/24 10:17:48;;;;;;;150.88;84.53;;;;;;;;;;4992777;28;20056;-78
2022/11/24 10:20:17;;;;;;;497.38;297.67;;;;;;;;;;4993019;28;20515;-73
2022/11/24 10:23:01;;;;;;;462.75;266.83;;;;;;;;;;4993131;28;20026;-78
2022/11/24 10:25:41;;;;;;;81.68;46.83;;;;;;;;;;4981412;28;20041;-78
2022/11/24 10:28:13;;;;;;;1022.33;616.20;;;;;;;;;;4993074;28;20109;-77
2022/11/24 10:30:39;;;;;;;334.45;225.05;;;;;;;;;;4996027;28;20039;-78
2022/11/24 10:33:21;;;;;;;89.03;60.28;;;;;;;;;;4996692;28;20488;-77
2022/11/24 10:36:16;;;;;;;35.22;17.60;;;;;;;;;;4997034;28;20038;-78
2022/11/24 10:39:09;;;;;;;28.75;12.27;;;;;;;;;;4959002;28;20473;-78
2022/11/24 10:41:41;;;;;;;22.15;12.25;;;;;;;;;;4992415;28;20072;-77
2022/11/24 10:44:12;;;;;;;37.38;16.60;;;;;;;;;;4996548;28;20034;-79
2022/11/24 10:46:38;;;;;;;13.55;9.50;;;;;;;;;;4978905;28;20080;-78
2022/11/24 10:49:05;;;;;;;25.10;12.73;;;;;;;;;;4996534;28;20350;-78
2022/11/24 10:51:31;;;;;;;24.65;11.15;;;;;;;;;;4997211;28;20034;-77
2022/11/24 10:54:01;;;;;;;42.90;16.13;;;;;;;;;;4996287;28;20495;-79
2022/11/24 10:56:37;;;;;;;395.27;254.18;;;;;;;;;;4996479;28;20030;-80
2022/11/24 10:59:33;;;;;;;65.97;38.22;;;;;;;;;;4996396;28;20058;-78
2022/11/24 11:01:59;;;;;;;22.45;14.48;;;;;;;;;;4965554;28;20034;-79
2022/11/24 11:04:27;;;;;;;19.90;10.32;;;;;;;;;;4996163;28;20094;-79
2022/11/24 11:07:06;;;;;;;24.08;12.27;;;;;;;;;;4996327;28;20029;-79
2022/11/24 11:09:32;;;;;;;21.98;10.02;;;;;;;;;;4996252;28;20030;-78
2022/11/24 11:12:08;;;;;;;29.48;13.57;;;;;;;;;;4996170;28;20030;-78
2022/11/24 11:14:34;;;;;;;15.02;10.52;;;;;;;;;;4996508;28;20018;-74
2022/11/24 11:17:01;;;;;;;24.95;11.57;;;;;;;;;;4978231;28;20104;-76
2022/11/24 11:19:31;;;;;;;24.10;13.52;;;;;;;;;;4996053;28;20018;-79
2022/11/24 11:22:23;;;;;;;25.75;14.73;;;;;;;;;;4996101;28;20054;-79
2022/11/24 11:25:01;;;;;;;22.23;12.45;;;;;;;;;;4991786;28;20121;-76
2022/11/24 11:27:27;;;;;;;14.95;8.63;;;;;;;;;;4996387;28;20034;-75
2022/11/24 11:29:54;;;;;;;13.80;8.90;;;;;;;;;;4995775;28;20030;-75
2022/11/24 11:32:21;;;;;;;17.65;8.07;;;;;;;;;;4995743;28;20042;-77
2022/11/24 11:34:48;;;;;;;20.08;10.55;;;;;;;;;;4996243;28;20054;-79
2022/11/24 11:37:15;;;;;;;30.05;15.27;;;;;;;;;;4996438;28;20057;-80
2022/11/24 11:39:42;;;;;;;10.57;7.22;;;;;;;;;;4996657;28;20531;-77
2022/11/24 11:42:14;;;;;;;20.58;12.60;;;;;;;;;;4996270;28;20089;-78
2022/11/24 11:44:58;;;;;;;16.45;9.68;;;;;;;;;;4996247;28;20026;-79
2022/11/24 11:47:27;;;;;;;16.63;8.05;;;;;;;;;;4983191;28;20033;-78
2022/11/24 11:49:53;;;;;;;18.00;8.15;;;;;;;;;;4996170;28;20030;-76
2022/11/24 11:52:38;;;;;;;17.27;8.52;;;;;;;;;;4995807;28;20113;-78
2022/11/24 11:55:15;;;;;;;18.55;8.73;;;;;;;;;;4996049;28;20034;-77
2022/11/24 11:57:48;;;;;;;35.05;13.82;;;;;;;;;;4995938;28;20025;-78
2022/11/24 12:00:15;;;;;;;15.73;9.00;;;;;;;;;;4995162;28;20061;-76
2022/11/24 12:03:00;;;;;;;21.45;11.25;;;;;;;;;;4995166;28;20380;-79
2022/11/24 12:05:26;;;;;;;20.63;10.02;;;;;;;;;;4995136;28;20453;-79
2022/11/24 12:08:15;;;;;;;30.73;15.63;;;;;;;;;;4995511;28;20050;-78
2022/11/24 12:10:42;;;;;;;12.95;9.27;;;;;;;;;;4995142;28;20427;-78
2022/11/24 12:13:26;;;;;;;39.85;12.52;;;;;;;;;;4995086;28;20485;-79
2022/11/24 12:15:55;;;;;;;23.17;12.10;;;;;;;;;;4977393;28;20527;-79
2022/11/24 12:18:40;;;;;;;13.43;8.13;;;;;;;;;;4994959;28;20464;-78
2022/11/24 12:21:06;;;;;;;43.40;26.58;;;;;;;;;;4994569;28;20022;-79
2022/11/24 12:23:45;;;;;;;38.85;22.33;;;;;;;;;;4977711;28;20031;-79
2022/11/24 12:26:29;;;;;;;24.77;15.23;;;;;;;;;;4993657;28;20384;-74
2022/11/24 12:28:58;;;;;;;21.42;11.75;;;;;;;;;;4994930;28;20046;-79
2022/11/24 12:31:33;;;;;;;8.05;4.57;;;;;;;;;;4994448;28;20555;-75
2022/11/24 12:34:38;;;;;;;20.95;8.10;;;;;;;;;;4994905;28;20037;-80
2022/11/24 12:37:07;;;;;;;18.48;7.50;;;;;;;;;;4934331;29;20028;-77
2022/11/24 12:39:45;;;;;;;22.00;9.38;;;;;;;;;;4934675;29;20501;-73
2022/11/24 12:42:18;;;;;;;16.10;8.65;;;;;;;;;;4934516;29;20510;-79
2022/11/24 12:44:46;;;;;;;18.25;9.38;;;;;;;;;;4934536;29;20557;-76
2022/11/24 12:47:21;;;;;;;12.65;7.13;;;;;;;;;;4934324;29;20087;-80
2022/11/24 12:49:56;;;;;;;14.70;8.30;;;;;;;;;;4934488;29;20103;-80
2022/11/24 12:52:25;;;;;;;19.60;10.13;;;;;;;;;;4933174;29;20434;-79
2022/11/24 12:54:52;;;;;;;34.53;21.00;;;;;;;;;;4934311;29;20032;-80
2022/11/24 12:57:20;;;;;;;22.58;10.85;;;;;;;;;;4934206;29;20027;-80
2022/11/24 12:59:52;;;;;;;13.50;8.45;;;;;;;;;;4934446;29;20027;-81
2022/11/24 13:02:24;;;;;;;18.10;9.60;;;;;;;;;;4934048;29;20043;-80
2022/11/24 13:04:50;;;;;;;10.95;6.72;;;;;;;;;;4934301;29;20024;-80
2022/11/24 13:07:21;;;;;;;17.40;8.45;;;;;;;;;;4951088;28;20038;-80
2022/11/24 13:10:06;;;;;;;16.70;8.90;;;;;;;;;;4993734;28;20485;-78
2022/11/24 13:12:32;;;;;;;57.40;30.70;;;;;;;;;;4993569;28;20034;-79
2022/11/24 13:14:58;;;;;;;27.73;19.88;;;;;;;;;;4993894;28;20523;-78
2022/11/24 13:17:24;;;;;;;21.05;12.73;;;;;;;;;;4993574;28;20054;-73
2022/11/24 13:19:50;;;;;;;19.15;15.45;;;;;;;;;;4993941;28;20073;-79
2022/11/24 13:22:16;;;;;;;43.75;28.95;;;;;;;;;;4993877;28;20535;-74
2022/11/24 13:24:44;;;;;;;31.77;22.77;;;;;;;;;;4993732;28;20030;-80
2022/11/24 13:27:14;;;;;;;21.17;15.20;;;;;;;;;;4993859;28;20095;-79
2022/11/24 13:29:41;;;;;;;25.85;15.63;;;;;;;;;;4993656;28;20022;-79
2022/11/24 13:32:19;;;;;;;25.00;13.80;;;;;;;;;;4993603;28;20487;-79
2022/11/24 13:34:53;;;;;;;22.17;11.68;;;;;;;;;;4993633;28;20101;-79
2022/11/24 13:37:23;;;;;;;16.90;10.18;;;;;;;;;;4976042;28;20519;-80
2022/11/24 13:39:49;;;;;;;18.33;14.02;;;;;;;;;;4975779;28;20121;-79
2022/11/24 13:42:16;;;;;;;20.75;10.73;;;;;;;;;;4993497;28;20026;-80
2022/11/24 13:44:46;;;;;;;17.42;11.95;;;;;;;;;;4993455;28;20050;-80
2022/11/24 13:47:31;;;;;;;14.82;8.52;;;;;;;;;;4993268;28;20428;-79
2022/11/24 13:49:57;;;;;;;21.00;9.70;;;;;;;;;;4993551;28;20030;-80
2022/11/24 13:52:56;;;;;;;17.88;9.80;;;;;;;;;;4993440;28;20166;-80
2022/11/24 13:55:25;;;;;;;20.52;11.60;;;;;;;;;;4933428;28;20509;-79
2022/11/24 13:57:53;;;;;;;18.33;11.02;;;;;;;;;;4933415;29;20043;-80
2022/11/24 14:00:29;;;;;;;20.67;11.18;;;;;;;;;;4933614;29;20040;-81
2022/11/24 14:03:14;;;;;;;17.80;8.13;;;;;;;;;;4933584;29;20028;-80
2022/11/24 14:05:45;;;;;;;11.60;6.80;;;;;;;;;;4937567;29;20491;-79
2022/11/24 14:08:16;;;;;;;18.33;12.35;;;;;;;;;;4937389;29;20115;-79
2022/11/24 14:10:42;;;;;;;14.40;7.93;;;;;;;;;;4937369;29;20520;-78
2022/11/24 14:13:23;;;;;;;15.65;8.15;;;;;;;;;;4937424;29;20520;-80
2022/11/24 14:16:01;;;;;;;15.75;9.02;;;;;;;;;;4937049;29;20107;-79
2022/11/24 14:18:28;;;;;;;16.02;9.50;;;;;;;;;;4918011;29;20056;-78
2022/11/24 14:20:55;;;;;;;15.52;8.88;;;;;;;;;;4918055;29;20032;-78
2022/11/24 14:23:22;;;;;;;18.33;10.63;;;;;;;;;;4918296;29;20029;-78
2022/11/24 14:25:49;;;;;;;26.67;10.00;;;;;;;;;;4917685;29;20545;-77